Terminal Aerodrome Forecast
Issued by NWS

Home | Current Version | Previous Version | Text Only | Print | Product List | Glossary On
Versions: 1 2 3 4 5 6 7 8 9 10 11 12 13 14 15 16 17 18 19 20 21 22 23 24 25 26 27 28 29 30 31 32 33 34 35 36 37 38 39 40 41 42 43 44 45 46 47 48 49 50
000
FTUS44 KHGX 231457 AAA
TAFCXO
TAF AMD
KCXO 231457Z 2315/2412 14004KT P6SM VCSH BKN009 OVC016
     FM231800 15010KT P6SM VCTS SCT025 BKN035CB
     FM240200 12008KT P6SM BKN015 BKN025
     FM240800 14007KT P6SM VCTS BKN015CB=

USA.gov is the U.S. government's official web portal to all federal, state and local government web resources and services.